Bowling Green, KY

1:37 AM CDT on September 05, 2015 (GMT -0500)
Bowling Green-Warren County Regional | | Change Station
CLOSE
Current Station
Airport
Location: Bowling Green,
Elevation: 548 ft
Nearby Weather Stations

Elev 548 ft 36.96 °N, 86.42 °W | Updated 44 minutes ago

Clear
Clear
71 °F
Feels Like 71 °F
N
0
Wind Variable Wind from North

Today
High -- | Low -- °F
--% Chance of Precip.
Yesterday
High -- | Low -- °F
Precip. -- in
6:19 AM 7:08 PM
Waning Gibbous, 51% visible
Pressure 30.04 in
Visibility 10.0 miles
Clouds Clear
Dew Point 65 °F
Humidity 81%
Rainfall 0.00 in
Snow Depth Not available.
UV 0 out of 12
Pollen 10.50 out of 12
Air Quality Not available.
Flu Activity Not available.
METAR KBWG 050553Z AUTO 00000KT 10SM CLR 22/18 A3006 RMK AO2 SLP172 T02170183 10294 20217 403560189 58001
Pressure 30.04 in
Visibility 10.0 miles
Clouds Clear
Dew Point 65 °F
Humidity 81%
Rainfall 0.00 in
Snow Depth Not available.
UV 0 out of 12
Pollen 10.50 out of 12
Air Quality Not available.
Flu Activity Not available.
METAR KBWG 050553Z AUTO 00000KT 10SM CLR 22/18 A3006 RMK AO2 SLP172 T02170183 10294 20217 403560189 58001

10-Day Weather Forecast

×

Almanac

Astronomy

Sep. 05, 2015 Rise Set
Actual Time
Civil Twilight
Nautical Twilight
Astronomical Twilight
Moon
Length of Visible Light
Length of Day
Tomorrow will be .
, % of the Moon is Illuminated

Today's Extremes

State Highs State Lows

Community

WunderPhotos

Upload Photos

1,852,430 photos uploaded!

WunderBlogs® & News

Nearby

Air Quality

  Air Quality AQ Index Pollutant
Not available.

Snow Depth

Station Depth Elevation

Earthquake Activity

City Distance Mag. Time & Date
Minimum magnitude displayed is 2.5.

Coastal Water Temperatures

Place Temperature

Stations

Nearby Weather Stations

Station Location Temp. Windchill Dew Point Humidity Wind Precip. Elev Updated Type